Time;durP1;ratioP1;P1;durP2;ratioP2;P2;SDS_P1;SDS_P2;PMS_P1;PMS_P2;Temp;Humidity;BMP_temperature;BMP_pressure;BME280_temperature;BME280_humidity;BME280_pressure;Samples;Min_cycle;Max_cycle;Signal;HPM_P1;HPM_P2
2021/04/04 00:01:41;;;;;;;27.83;15.13;;;;;;;15.64;35.13;103126.94;4975189;28;20039;-76
2021/04/04 00:04:07;;;;;;;25.95;15.00;;;;;;;15.62;35.10;103120.88;4975154;28;20078;-79
2021/04/04 00:06:32;;;;;;;22.15;14.45;;;;;;;15.61;35.16;103122.81;4973959;28;20523;-75
2021/04/04 00:08:58;;;;;;;25.13;15.55;;;;;;;15.59;35.18;103115.94;4975149;28;20445;-76
2021/04/04 00:11:25;;;;;;;21.08;14.32;;;;;;;15.59;34.90;103124.19;4975052;28;20035;-76
2021/04/04 00:13:51;;;;;;;19.05;13.82;;;;;;;15.52;35.19;103122.59;4975060;28;20054;-76
2021/04/04 00:16:16;;;;;;;22.73;14.02;;;;;;;15.48;35.25;103117.94;4974980;28;20063;-76
2021/04/04 00:18:42;;;;;;;18.55;13.65;;;;;;;15.47;35.54;103121.81;4975193;28;20130;-76
2021/04/04 00:21:09;;;;;;;24.63;13.82;;;;;;;15.41;35.31;103117.44;4974841;28;20041;-76
2021/04/04 00:23:36;;;;;;;26.48;15.40;;;;;;;15.34;35.55;103112.28;4974776;28;20469;-75
2021/04/04 00:26:02;;;;;;;24.90;14.52;;;;;;;15.32;35.55;103108.16;4975071;28;20054;-82
2021/04/04 00:28:28;;;;;;;23.13;15.73;;;;;;;15.34;35.35;103109.53;4974697;28;20034;-76
2021/04/04 00:30:54;;;;;;;22.65;13.77;;;;;;;15.32;35.52;103120.00;4974617;28;20035;-84
2021/04/04 00:33:19;;;;;;;23.05;14.73;;;;;;;15.29;35.66;103112.31;4974708;28;20392;-76
2021/04/04 00:35:46;;;;;;;30.00;17.35;;;;;;;15.27;35.66;103112.63;4974642;28;20027;-75
2021/04/04 00:38:13;;;;;;;26.13;15.82;;;;;;;15.32;35.83;103108.16;4974659;28;20075;-76
2021/04/04 00:40:38;;;;;;;21.92;15.25;;;;;;;15.33;35.57;103105.13;4973332;28;20105;-77
2021/04/04 00:43:05;;;;;;;23.83;15.45;;;;;;;15.31;35.73;103098.25;4974366;28;20122;-76
2021/04/04 00:45:34;;;;;;;29.17;17.10;;;;;;;15.35;35.70;103102.91;4974249;28;20051;-75
2021/04/04 00:48:00;;;;;;;24.52;14.75;;;;;;;15.35;35.61;103100.16;4974494;28;20085;-75
2021/04/04 00:50:29;;;;;;;20.63;14.27;;;;;;;15.34;35.64;103100.44;4974359;28;20098;-75
2021/04/04 00:52:58;;;;;;;25.25;15.77;;;;;;;15.27;35.65;103101.59;4973439;28;20031;-75
2021/04/04 00:55:24;;;;;;;26.40;14.93;;;;;;;15.30;35.66;103102.13;4974283;28;20023;-75
2021/04/04 00:57:51;;;;;;;21.92;14.77;;;;;;;15.28;35.68;103099.66;4974317;28;20049;-76
2021/04/04 01:00:21;;;;;;;24.30;15.90;;;;;;;15.23;35.71;103102.44;4974534;28;20393;-75
2021/04/04 01:02:49;;;;;;;22.05;15.23;;;;;;;15.20;35.70;103105.78;4974105;28;20042;-75
2021/04/04 01:05:18;;;;;;;21.45;14.40;;;;;;;15.17;35.86;103098.09;4974247;28;20023;-75
2021/04/04 01:07:45;;;;;;;27.10;15.23;;;;;;;15.18;35.97;103089.53;4974184;28;20022;-80
2021/04/04 01:10:12;;;;;;;21.38;14.85;;;;;;;15.20;35.69;103092.03;4974154;28;20026;-79
2021/04/04 01:12:55;;;;;;;21.45;15.35;;;;;;;15.14;36.05;103098.66;4973973;28;20079;-83
2021/04/04 01:15:34;;;;;;;22.23;15.73;;;;;;;15.09;35.89;103085.75;4972823;28;20500;-79
2021/04/04 01:18:20;;;;;;;24.67;15.45;;;;;;;14.98;36.06;103085.00;4973993;28;20019;-79
2021/04/04 01:20:53;;;;;;;23.90;15.27;;;;;;;14.98;35.91;103079.50;4974011;28;20034;-76
2021/04/04 01:23:30;;;;;;;22.67;15.27;;;;;;;14.98;36.10;103075.94;4974079;28;20420;-76
2021/04/04 01:26:17;;;;;;;25.10;16.45;;;;;;;14.91;35.96;103073.50;4974257;28;20126;-81
2021/04/04 01:28:44;;;;;;;21.73;15.40;;;;;;;14.90;36.19;103079.28;4973966;28;20027;-84
2021/04/04 01:31:11;;;;;;;23.20;16.70;;;;;;;14.89;36.30;103067.47;4973834;28;20081;-81
2021/04/04 01:33:39;;;;;;;24.13;16.05;;;;;;;14.83;35.94;103065.84;4974085;28;20034;-76
2021/04/04 01:36:11;;;;;;;23.60;15.63;;;;;;;14.76;36.21;103059.84;4973837;28;20030;-76
2021/04/04 01:38:41;;;;;;;25.02;16.02;;;;;;;14.74;36.21;103067.56;4974059;28;20026;-85
2021/04/04 01:41:18;;;;;;;25.30;15.70;;;;;;;14.71;36.38;103068.13;4973811;28;20038;-84
2021/04/04 01:43:46;;;;;;;28.17;15.43;;;;;;;14.70;36.24;103056.28;4973601;28;20077;-76
2021/04/04 01:46:13;;;;;;;24.52;14.45;;;;;;;14.74;36.32;103045.56;4973585;28;20047;-79
2021/04/04 01:48:40;;;;;;;27.80;16.20;;;;;;;14.69;36.37;103040.06;4973679;28;20077;-83
2021/04/04 01:51:10;;;;;;;25.33;14.48;;;;;;;14.71;36.34;103037.84;4973687;28;20026;-76
2021/04/04 01:53:36;;;;;;;22.75;14.73;;;;;;;14.70;36.14;103037.03;4973675;28;20038;-75
2021/04/04 01:56:02;;;;;;;20.73;14.27;;;;;;;14.67;36.18;103032.09;4973595;28;20505;-76
2021/04/04 01:58:30;;;;;;;23.02;15.70;;;;;;;14.64;36.13;103034.59;4973662;28;20117;-76
2021/04/04 02:00:56;;;;;;;24.50;16.65;;;;;;;14.53;36.39;103044.03;4973813;28;20018;-83
2021/04/04 02:03:22;;;;;;;22.10;15.68;;;;;;;14.58;36.20;103038.47;4973726;28;20493;-76
2021/04/04 02:05:51;;;;;;;25.38;15.27;;;;;;;14.57;36.40;103039.59;4977418;28;20025;-77
2021/04/04 02:08:18;;;;;;;23.38;14.57;;;;;;;14.55;36.15;103037.13;4977335;28;20022;-76
2021/04/04 02:10:44;;;;;;;26.15;15.65;;;;;;;14.54;36.16;103037.41;4977327;28;20034;-76
2021/04/04 02:13:11;;;;;;;21.35;14.85;;;;;;;14.51;36.27;103038.81;4977249;28;20560;-84
2021/04/04 02:15:38;;;;;;;22.15;15.13;;;;;;;14.48;36.32;103033.03;4975987;28;20389;-75
2021/04/04 02:18:07;;;;;;;24.73;15.45;;;;;;;14.46;36.16;103029.75;4977189;28;20033;-85
2021/04/04 02:20:34;;;;;;;19.48;14.48;;;;;;;14.43;36.33;103029.19;4977137;28;20022;-75
2021/04/04 02:23:02;;;;;;;22.38;14.95;;;;;;;14.41;36.38;103022.31;4977045;28;20106;-78
2021/04/04 02:25:28;;;;;;;21.77;15.02;;;;;;;14.40;36.29;103021.50;4977058;28;20023;-78
2021/04/04 02:27:54;;;;;;;21.92;15.30;;;;;;;14.39;36.30;103014.34;4977056;28;20026;-75
2021/04/04 02:30:20;;;;;;;22.15;14.27;;;;;;;14.38;36.25;103007.22;4977039;28;20058;-78
2021/04/04 02:32:58;;;;;;;24.05;14.50;;;;;;;14.32;36.32;103000.09;4977017;28;20393;-76
2021/04/04 02:35:31;;;;;;;19.75;14.77;;;;;;;14.30;36.26;102996.81;4976982;28;20050;-76
2021/04/04 02:37:59;;;;;;;23.08;14.65;;;;;;;14.27;36.22;102994.59;4976879;28;20026;-75
2021/04/04 02:40:26;;;;;;;27.52;15.85;;;;;;;14.25;36.26;102991.31;4976760;28;20030;-76
2021/04/04 02:42:53;;;;;;;23.60;16.25;;;;;;;14.26;36.33;102986.66;4976567;28;20030;-83
2021/04/04 02:45:19;;;;;;;25.58;18.00;;;;;;;14.25;36.52;102996.81;4976518;28;20061;-82
2021/04/04 02:47:52;;;;;;;30.23;20.33;;;;;;;14.21;36.46;102989.41;4976827;28;20054;-75
2021/04/04 02:50:21;;;;;;;26.67;20.35;;;;;;;14.21;36.26;102983.91;4976658;28;20046;-75
2021/04/04 02:52:48;;;;;;;31.38;20.95;;;;;;;14.23;36.48;102985.28;4976607;28;20035;-75
2021/04/04 02:55:17;;;;;;;32.45;22.75;;;;;;;14.19;36.69;102986.94;4976496;28;20027;-75
2021/04/04 02:57:45;;;;;;;32.60;24.02;;;;;;;14.24;36.62;102984.19;4976339;28;20035;-76
2021/04/04 03:00:12;;;;;;;35.92;23.02;;;;;;;14.17;37.04;102978.16;4976360;28;20023;-85
2021/04/04 03:02:39;;;;;;;31.52;22.77;;;;;;;14.21;36.76;102962.78;4976268;28;20027;-80
2021/04/04 03:05:07;;;;;;;36.60;23.75;;;;;;;14.23;36.76;102959.72;4976437;28;20062;-75
2021/04/04 03:07:35;;;;;;;35.13;23.08;;;;;;;14.22;36.75;102958.91;4976340;28;20022;-75
2021/04/04 03:10:02;;;;;;;28.45;22.80;;;;;;;14.23;36.88;102955.06;4976292;28;20027;-84
2021/04/04 03:12:29;;;;;;;30.17;22.83;;;;;;;14.23;36.63;102954.22;4976485;28;20085;-75
2021/04/04 03:14:58;;;;;;;28.75;22.20;;;;;;;14.17;36.55;102950.69;4974114;28;20030;-85
2021/04/04 03:17:26;;;;;;;34.05;23.95;;;;;;;14.09;36.87;102954.03;4976077;28;20022;-84
2021/04/04 03:19:52;;;;;;;32.58;23.05;;;;;;;14.11;36.75;102968.31;4976161;28;20511;-86
2021/04/04 03:22:20;;;;;;;30.80;23.45;;;;;;;14.04;36.76;102962.28;4975913;28;20544;-81
2021/04/04 03:24:47;;;;;;;25.88;21.42;;;;;;;13.96;36.73;102954.63;4976012;28;20022;-76
2021/04/04 03:27:13;;;;;;;29.52;22.30;;;;;;;13.91;36.75;102963.75;4975082;28;20453;-75
2021/04/04 03:29:41;;;;;;;33.35;22.50;;;;;;;13.71;36.91;102961.88;4975390;28;20441;-79
2021/04/04 03:32:07;;;;;;;27.75;20.52;;;;;;;13.70;36.82;102949.25;4975860;28;20393;-84
2021/04/04 03:34:34;;;;;;;38.08;22.13;;;;;;;13.71;36.91;102953.66;4975409;28;20027;-83
2021/04/04 03:37:01;;;;;;;31.38;21.20;;;;;;;13.69;37.00;102949.53;4975705;28;20039;-76
2021/04/04 03:39:27;;;;;;;38.80;21.40;;;;;;;13.64;36.96;102944.06;4975725;28;20026;-76
2021/04/04 03:41:55;;;;;;;38.55;23.08;;;;;;;13.63;36.99;102945.16;4975569;28;20027;-78
2021/04/04 03:44:21;;;;;;;29.73;22.08;;;;;;;13.65;36.98;102938.28;4974044;28;20023;-75
2021/04/04 03:46:49;;;;;;;28.30;20.63;;;;;;;13.69;37.08;102935.81;4977572;28;20043;-78
2021/04/04 03:49:17;;;;;;;30.02;21.45;;;;;;;13.70;36.96;102930.03;4974115;28;20038;-75
2021/04/04 03:51:44;;;;;;;31.98;20.23;;;;;;;13.67;37.06;102924.25;4975662;28;20382;-75
2021/04/04 03:54:14;;;;;;;29.00;20.25;;;;;;;13.57;36.99;102927.88;4975372;28;20046;-75
2021/04/04 03:56:45;;;;;;;28.17;19.83;;;;;;;13.57;36.95;102917.69;4975251;28;20477;-75
2021/04/04 03:59:12;;;;;;;26.52;20.25;;;;;;;13.55;37.04;102916.34;4975282;28;20057;-75
2021/04/04 04:01:43;;;;;;;29.17;21.10;;;;;;;13.59;37.02;102911.91;4975475;28;20385;-76
2021/04/04 04:04:10;;;;;;;28.13;20.17;;;;;;;13.58;37.08;102902.88;4975193;28;20030;-75
2021/04/04 04:06:40;;;;;;;23.77;18.05;;;;;;;13.59;36.90;102901.75;4975147;28;20023;-76
2021/04/04 04:09:11;;;;;;;28.92;18.00;;;;;;;13.52;36.89;102900.41;4975231;28;20494;-75
2021/04/04 04:11:38;;;;;;;29.02;18.63;;;;;;;13.55;36.79;102902.63;4975126;28;20066;-75
2021/04/04 04:14:05;;;;;;;28.17;17.40;;;;;;;13.49;36.99;102917.47;4975383;28;20393;-75
2021/04/04 04:16:35;;;;;;;25.42;18.35;;;;;;;13.47;36.93;102906.75;4975359;28;20228;-76
2021/04/04 04:19:01;;;;;;;31.73;18.98;;;;;;;13.45;36.95;102905.38;4975017;28;20030;-75
2021/04/04 04:21:27;;;;;;;25.60;17.10;;;;;;;13.45;36.92;102911.72;4974552;28;20358;-80
2021/04/04 04:23:53;;;;;;;25.45;17.90;;;;;;;13.44;37.04;102907.31;4973667;28;20027;-75
2021/04/04 04:26:20;;;;;;;23.20;17.42;;;;;;;13.43;36.95;102902.91;4973457;28;20034;-76
2021/04/04 04:28:47;;;;;;;26.42;17.63;;;;;;;13.44;37.24;102906.47;4973555;28;20037;-75
2021/04/04 04:31:20;;;;;;;29.58;18.42;;;;;;;13.41;37.16;102910.63;4973550;28;20940;-76
2021/04/04 04:33:48;;;;;;;25.83;17.60;;;;;;;13.32;37.14;102904.88;4974763;28;20027;-76
2021/04/04 04:36:17;;;;;;;32.72;20.38;;;;;;;13.39;37.16;102898.28;4974607;28;20039;-78
2021/04/04 04:38:43;;;;;;;24.00;19.52;;;;;;;13.39;37.13;102892.78;4974627;28;20034;-75
2021/04/04 04:41:11;;;;;;;24.77;17.45;;;;;;;13.37;37.07;102892.22;4974664;28;20023;-82
2021/04/04 04:43:41;;;;;;;31.00;18.85;;;;;;;13.39;36.96;102881.81;4974783;28;20097;-85
2021/04/04 04:46:08;;;;;;;29.20;18.23;;;;;;;13.42;36.97;102883.97;4974389;28;20046;-76
2021/04/04 04:48:34;;;;;;;23.75;17.10;;;;;;;13.36;37.06;102869.44;4974722;28;20031;-76
2021/04/04 04:51:00;;;;;;;21.70;16.95;;;;;;;13.33;37.11;102859.84;4974597;28;20023;-84
2021/04/04 04:53:26;;;;;;;28.80;16.13;;;;;;;13.24;37.11;102860.72;4974392;28;20445;-75
2021/04/04 04:56:00;;;;;;;22.17;16.77;;;;;;;13.27;37.04;102846.41;4974348;28;20034;-75
2021/04/04 04:58:27;;;;;;;27.75;18.15;;;;;;;13.24;37.06;102817.59;4974419;28;20058;-84
2021/04/04 05:00:58;;;;;;;32.60;17.75;;;;;;;13.21;36.97;102839.28;4974280;28;20035;-76
2021/04/04 05:03:23;;;;;;;31.30;19.00;;;;;;;13.22;37.13;102841.75;4972986;28;20065;-75
2021/04/04 05:05:50;;;;;;;27.98;18.13;;;;;;;13.26;37.05;102845.59;4974239;28;20026;-83
2021/04/04 05:08:17;;;;;;;30.48;20.65;;;;;;;13.23;37.29;102843.41;4974284;28;20461;-75
2021/04/04 05:10:44;;;;;;;31.00;20.83;;;;;;;13.15;37.55;102845.88;4974108;28;20038;-81
2021/04/04 05:13:12;;;;;;;26.67;19.77;;;;;;;13.23;37.38;102842.59;4974075;28;20030;-75
2021/04/04 05:15:40;;;;;;;37.55;21.30;;;;;;;13.21;37.37;102842.84;4973954;28;20081;-76
2021/04/04 05:18:06;;;;;;;30.80;20.08;;;;;;;13.25;37.40;102840.38;4974275;28;20465;-84
2021/04/04 05:20:32;;;;;;;31.17;20.80;;;;;;;13.26;37.38;102842.03;4972793;28;20061;-75
2021/04/04 05:22:59;;;;;;;32.13;20.63;;;;;;;13.28;37.59;102834.31;4974069;28;20081;-75
2021/04/04 05:25:25;;;;;;;32.25;19.17;;;;;;;13.27;37.53;102847.22;4973959;28;20069;-75
2021/04/04 05:27:51;;;;;;;29.75;19.40;;;;;;;13.18;37.52;102848.88;4973958;28;20031;-75
2021/04/04 05:30:17;;;;;;;30.92;20.00;;;;;;;13.08;37.97;102846.19;4973753;28;20493;-76
2021/04/04 05:32:47;;;;;;;34.40;21.50;;;;;;;13.06;38.07;102859.34;4973680;28;20027;-74
2021/04/04 05:35:18;;;;;;;32.08;21.67;;;;;;;13.20;37.73;102859.63;4973978;28;20071;-75
2021/04/04 05:37:45;;;;;;;33.80;23.23;;;;;;;13.25;37.62;102848.63;4973283;28;20389;-75
2021/04/04 05:40:20;;;;;;;29.40;20.30;;;;;;;13.28;37.59;102851.63;4973824;28;20034;-75
2021/04/04 05:42:56;;;;;;;27.48;20.45;;;;;;;13.24;37.55;102855.22;4972379;28;20486;-75
2021/04/04 05:45:37;;;;;;;25.80;17.33;;;;;;;13.23;37.48;102846.16;4973499;28;20512;-75
2021/04/04 05:48:41;;;;;;;27.95;18.42;;;;;;;13.23;37.25;102837.94;4973695;28;20501;-75
2021/04/04 05:51:18;;;;;;;36.92;21.10;;;;;;;13.18;37.45;102834.34;4973681;28;20034;-74
2021/04/04 05:53:46;;;;;;;32.53;19.95;;;;;;;13.22;37.51;102841.75;4973607;28;20118;-75
2021/04/04 05:56:27;;;;;;;30.92;18.90;;;;;;;13.24;37.26;102845.06;4973753;28;20033;-76
2021/04/04 05:59:03;;;;;;;25.55;19.00;;;;;;;13.26;37.24;102831.06;4973796;28;20089;-75
2021/04/04 06:01:49;;;;;;;24.27;17.95;;;;;;;13.28;37.19;102832.41;4973533;28;20054;-84
2021/04/04 06:04:38;;;;;;;30.48;20.73;;;;;;;13.22;37.33;102824.47;4973707;28;20035;-75
2021/04/04 06:07:28;;;;;;;31.20;20.15;;;;;;;13.18;37.41;102821.44;4973722;28;20027;-85
2021/04/04 06:09:53;;;;;;;;;;;;;;;13.10;37.83;102808.28;4973009;28;20397;-76
2021/04/04 06:12:50;;;;;;;30.92;20.08;;;;;;;13.19;37.59;102817.59;4973981;28;19914;-84
2021/04/04 06:15:55;;;;;;;30.30;20.77;;;;;;;13.18;37.74;102810.47;4973958;28;20528;-82
2021/04/04 06:18:39;;;;;;;33.53;20.73;;;;;;;13.20;38.14;102819.25;4973778;28;20034;-76
2021/04/04 06:21:32;;;;;;;35.45;21.65;;;;;;;13.23;38.29;102832.44;4972130;28;20125;-76
2021/04/04 06:24:32;;;;;;;34.20;23.23;;;;;;;13.13;39.20;102831.59;4973221;28;20445;-75
2021/04/04 06:27:24;;;;;;;39.30;22.83;;;;;;;13.39;38.47;102829.63;4973462;28;20038;-81
2021/04/04 06:29:55;;;;;;;38.17;22.50;;;;;;;13.43;38.59;102828.78;4972977;28;20118;-82
2021/04/04 06:32:29;;;;;;;34.53;22.17;;;;;;;13.45;39.05;102828.47;4973574;28;20068;-78
2021/04/04 06:34:59;;;;;;;38.78;22.55;;;;;;;13.50;38.93;102831.22;4973319;28;20027;-82
2021/04/04 06:37:49;;;;;;;36.67;25.35;;;;;;;13.74;38.75;102831.38;4973314;28;20484;-83
2021/04/04 06:40:22;;;;;;;;;;;;;;;13.58;39.83;102833.38;4973712;28;20038;-81
2021/04/04 06:42:56;;;;;;;31.17;23.10;;;;;;;13.88;38.64;102830.44;4973195;28;19960;-84
2021/04/04 06:45:49;;;;;;;33.70;20.98;;;;;;;13.80;39.62;102831.06;4972983;28;20408;-77
2021/04/04 06:48:38;;;;;;;36.70;22.65;;;;;;;13.87;39.80;102811.50;4973339;28;20052;-84
2021/04/04 06:51:21;;;;;;;32.37;21.87;;;;;;;13.88;40.01;102819.47;4974449;28;20109;-83
2021/04/04 06:53:59;;;;;;;31.13;22.08;;;;;;;13.84;40.56;102834.88;4976849;28;20268;-80
2021/04/04 06:56:40;;;;;;;34.05;21.42;;;;;;;14.02;40.05;102816.91;4976469;28;20035;-76
2021/04/04 06:59:26;;;;;;;32.80;22.63;;;;;;;14.01;40.21;102818.00;4976719;28;20030;-83
2021/04/04 07:02:05;;;;;;;32.83;21.20;;;;;;;14.21;40.03;102828.03;4967623;28;20035;-78
2021/04/04 07:04:37;;;;;;;34.00;22.33;;;;;;;14.14;40.20;102814.63;4976571;28;20031;-81
2021/04/04 07:07:25;;;;;;;30.85;22.08;;;;;;;14.43;39.64;102805.56;4975139;28;20019;-77
2021/04/04 07:10:33;;;;;;;28.33;20.10;;;;;;;14.40;40.02;102795.97;4976602;28;20063;-76
2021/04/04 07:13:20;;;;;;;29.80;23.38;;;;;;;14.35;40.13;102792.44;4976304;28;20366;-80
2021/04/04 07:15:55;;;;;;;38.00;22.42;;;;;;;14.49;39.84;102787.13;4976266;28;20056;-81
2021/04/04 07:19:05;;;;;;;29.55;21.40;;;;;;;14.17;40.75;102796.72;4976156;28;20429;-77
2021/04/04 07:21:58;;;;;;;33.65;22.48;;;;;;;14.34;40.63;102790.78;4976263;28;20030;-88
2021/04/04 07:24:56;;;;;;;29.42;22.67;;;;;;;14.52;40.41;102797.56;4976256;28;20041;-82
2021/04/04 07:28:04;;;;;;;40.13;25.45;;;;;;;14.51;40.76;102794.00;4975998;28;20023;-76
2021/04/04 07:31:02;;;;;;;34.85;23.40;;;;;;;14.50;40.97;102806.06;4975884;28;20466;-84
2021/04/04 07:33:46;;;;;;;38.88;24.20;;;;;;;14.90;40.32;102793.03;4975174;28;20053;-75
2021/04/04 07:36:21;;;;;;;33.58;25.13;;;;;;;14.98;40.15;102779.44;4976019;28;20561;-76
2021/04/04 07:39:05;;;;;;;35.83;25.88;;;;;;;15.12;40.23;102764.97;4972899;28;20041;-77
2021/04/04 07:41:42;;;;;;;48.13;27.27;;;;;;;15.15;40.34;102773.44;4973386;28;20093;-77
2021/04/04 07:44:25;;;;;;;34.72;25.55;;;;;;;14.83;41.27;102765.84;4975751;28;20058;-78
2021/04/04 07:47:12;;;;;;;44.45;25.15;;;;;;;14.66;41.99;102782.81;4975346;28;20055;-84
2021/04/04 07:49:45;;;;;;;40.42;25.20;;;;;;;14.84;41.88;102783.19;4975667;28;20054;-75
2021/04/04 07:52:23;;;;;;;44.38;26.88;;;;;;;14.98;41.83;102779.44;4975238;28;20033;-77
2021/04/04 07:55:18;;;;;;;33.20;27.05;;;;;;;14.80;42.09;102777.44;4975610;28;20050;-77
2021/04/04 07:58:11;;;;;;;45.17;28.65;;;;;;;15.30;41.53;102772.44;4975365;28;20022;-76
2021/04/04 08:00:41;;;;;;;36.35;25.52;;;;;;;15.59;41.08;102764.03;4975064;28;20030;-81
2021/04/04 08:03:43;;;;;;;40.83;26.67;;;;;;;15.95;40.43;102758.84;4975208;28;20034;-75
2021/04/04 08:06:11;;;;;;;36.03;24.23;;;;;;;16.02;40.77;102750.16;4924360;28;20066;-76
2021/04/04 08:09:05;;;;;;;42.45;23.95;;;;;;;16.08;40.74;102741.50;4970019;28;20022;-75
2021/04/04 08:11:55;;;;;;;32.97;23.70;;;;;;;16.26;40.48;102728.81;4957176;28;20039;-76
2021/04/04 08:14:30;;;;;;;32.95;23.13;;;;;;;16.26;40.86;102739.00;4975125;28;20034;-76
2021/04/04 08:16:59;;;;;;;38.90;23.98;;;;;;;16.48;40.36;102752.97;4975008;28;20033;-77
2021/04/04 08:19:26;;;;;;;34.35;22.80;;;;;;;16.45;40.95;102753.53;4975204;28;20052;-83
2021/04/04 08:22:26;;;;;;;31.77;22.17;;;;;;;16.14;41.71;102755.22;4975099;28;20085;-77
2021/04/04 08:24:59;;;;;;;30.58;22.50;;;;;;;16.18;41.87;102759.84;4965972;28;20161;-79
2021/04/04 08:27:33;;;;;;;32.92;22.60;;;;;;;16.60;41.16;102764.31;4963114;28;20046;-77
2021/04/04 08:30:20;;;;;;;31.15;21.73;;;;;;;16.85;41.16;102776.00;4965741;28;20048;-83
2021/04/04 08:32:50;;;;;;;38.17;22.52;;;;;;;16.72;41.50;102774.88;4971255;28;20030;-77
2021/04/04 08:35:25;;;;;;;34.70;22.38;;;;;;;16.40;42.44;102772.97;4974723;28;20023;-82
2021/04/04 08:37:56;;;;;;;33.47;23.92;;;;;;;16.96;41.17;102762.81;4974416;28;20512;-77
2021/04/04 08:40:23;;;;;;;32.80;23.23;;;;;;;17.09;40.77;102767.53;4974573;28;20031;-78
2021/04/04 08:42:50;;;;;;;31.05;24.90;;;;;;;17.45;40.03;102762.84;4974436;28;20027;-78
2021/04/04 08:45:29;;;;;;;38.05;25.08;;;;;;;17.62;39.88;102761.38;4974175;28;20129;-77
2021/04/04 08:47:55;;;;;;;34.70;24.17;;;;;;;17.65;40.25;102769.06;4974517;28;20121;-77
2021/04/04 08:50:22;;;;;;;41.97;23.27;;;;;;;17.77;40.25;102768.53;4966269;28;20030;-81
2021/04/04 08:53:07;;;;;;;29.92;23.65;;;;;;;17.80;40.12;102767.91;4957847;28;20031;-78
2021/04/04 08:55:33;;;;;;;31.42;22.77;;;;;;;17.66;40.57;102763.19;4957858;28;20034;-78
2021/04/04 08:58:02;;;;;;;34.88;23.52;;;;;;;17.82;40.29;102760.91;4957898;28;20064;-78
2021/04/04 09:00:29;;;;;;;31.30;23.13;;;;;;;18.06;40.30;102751.50;4958491;28;20030;-78
2021/04/04 09:02:59;;;;;;;34.35;22.50;;;;;;;18.36;39.68;102744.34;4958248;28;20647;-78
2021/04/04 09:05:26;;;;;;;36.20;24.90;;;;;;;18.40;39.72;102745.34;4939085;28;20039;-77
2021/04/04 09:07:55;;;;;;;29.90;20.67;;;;;;;17.89;41.03;102750.25;4947162;28;20041;-77
2021/04/04 09:10:21;;;;;;;36.05;23.83;;;;;;;18.66;39.33;102751.84;4958531;28;20026;-78
2021/04/04 09:12:48;;;;;;;27.38;20.33;;;;;;;18.89;39.14;102738.75;4957401;28;20468;-77
2021/04/04 09:15:14;;;;;;;34.65;21.80;;;;;;;19.10;38.96;102750.06;4938672;28;20379;-79
2021/04/04 09:17:54;;;;;;;28.70;21.63;;;;;;;19.23;38.64;102735.25;4957813;28;20034;-78
2021/04/04 09:20:43;;;;;;;28.30;22.58;;;;;;;19.37;38.67;102735.09;4957558;28;20014;-77
2021/04/04 09:23:10;;;;;;;27.58;20.77;;;;;;;19.35;38.95;102735.44;4956949;28;20058;-77
2021/04/04 09:25:58;;;;;;;26.85;18.58;;;;;;;19.20;38.91;102732.31;4957657;28;20019;-78
2021/04/04 09:28:29;;;;;;;26.52;19.08;;;;;;;19.54;38.22;102728.75;4956580;28;20023;-80
2021/04/04 09:30:58;;;;;;;28.33;19.90;;;;;;;19.90;37.70;102729.25;4956864;28;20038;-77
2021/04/04 09:33:29;;;;;;;26.85;18.58;;;;;;;19.86;37.59;102722.72;4938694;28;20106;-77
2021/04/04 09:35:57;;;;;;;30.00;20.45;;;;;;;19.30;38.68;102702.31;4956415;28;20073;-77
2021/04/04 09:38:30;;;;;;;28.35;22.55;;;;;;;19.88;37.67;102695.47;4939137;28;20035;-80
2021/04/04 09:40:56;;;;;;;34.20;23.73;;;;;;;20.09;37.43;102690.03;4957843;28;20034;-77
2021/04/04 09:43:23;;;;;;;26.20;20.92;;;;;;;20.17;37.50;102677.28;4951849;28;20037;-78
2021/04/04 09:45:49;;;;;;;27.10;20.08;;;;;;;20.38;37.05;102672.63;4957725;28;20054;-77
2021/04/04 09:48:18;;;;;;;29.20;18.90;;;;;;;20.39;36.96;102665.09;4956305;28;20026;-81
2021/04/04 09:50:44;;;;;;;27.00;17.55;;;;;;;20.42;36.82;102667.22;4955896;28;20050;-82
2021/04/04 09:53:10;;;;;;;25.13;17.45;;;;;;;20.17;37.52;102660.63;4957181;28;20392;-78
2021/04/04 09:55:36;;;;;;;22.85;15.90;;;;;;;20.06;37.64;102656.59;4957723;28;20031;-78
2021/04/04 09:58:03;;;;;;;29.35;16.88;;;;;;;19.89;37.31;102663.00;4958037;28;20031;-77
2021/04/04 10:00:39;;;;;;;26.95;14.90;;;;;;;19.92;36.99;102665.94;4956985;28;20571;-82
2021/04/04 10:03:15;;;;;;;24.75;16.30;;;;;;;19.55;38.04;102672.97;4957548;28;20035;-77
2021/04/04 10:05:51;;;;;;;30.08;17.83;;;;;;;20.04;37.03;102668.03;4956283;28;20023;-77
2021/04/04 10:08:25;;;;;;;25.75;15.05;;;;;;;19.88;37.28;102661.38;4956882;28;20034;-77
2021/04/04 10:10:52;;;;;;;27.35;17.63;;;;;;;20.49;36.38;102657.25;4957892;28;20031;-78
2021/04/04 10:13:24;;;;;;;25.10;16.23;;;;;;;20.61;36.06;102655.72;4959629;28;20035;-77
2021/04/04 10:15:51;;;;;;;28.02;17.25;;;;;;;20.68;36.02;102664.34;4938790;28;20019;-77
2021/04/04 10:18:19;;;;;;;20.08;13.40;;;;;;;20.68;36.21;102661.56;4956697;28;20030;-78
2021/04/04 10:20:51;;;;;;;28.90;15.70;;;;;;;21.01;35.45;102667.25;4956624;28;20035;-77
2021/04/04 10:23:17;;;;;;;22.38;14.45;;;;;;;21.00;35.69;102680.31;4957284;28;20058;-78
2021/04/04 10:25:58;;;;;;;22.50;14.15;;;;;;;20.84;35.77;102684.03;4960187;28;20070;-78
2021/04/04 10:28:25;;;;;;;18.95;12.93;;;;;;;20.74;35.88;102686.03;4960937;28;20448;-77
2021/04/04 10:30:56;;;;;;;21.40;14.75;;;;;;;20.75;36.10;102675.75;4959730;28;20079;-82
2021/04/04 10:33:25;;;;;;;21.25;13.98;;;;;;;20.34;36.54;102663.34;4972754;28;20023;-78
2021/04/04 10:35:53;;;;;;;21.00;13.20;;;;;;;20.72;36.28;102668.91;4960056;28;20034;-78
2021/04/04 10:38:21;;;;;;;17.58;13.13;;;;;;;21.24;35.07;102646.31;4959429;28;20659;-78
2021/04/04 10:40:51;;;;;;;16.88;13.80;;;;;;;21.07;35.91;102638.09;4960374;28;20037;-77
2021/04/04 10:43:20;;;;;;;21.00;14.60;;;;;;;21.32;35.29;102639.06;4960991;28;20111;-80
2021/04/04 10:45:54;;;;;;;20.05;13.00;;;;;;;21.55;35.07;102620.06;4959544;28;20055;-77
2021/04/04 10:48:20;;;;;;;22.15;14.25;;;;;;;21.33;35.75;102619.28;4959855;28;20031;-80
2021/04/04 10:50:49;;;;;;;23.38;15.23;;;;;;;21.90;34.88;102609.34;4959507;28;20050;-78
2021/04/04 10:53:17;;;;;;;33.92;16.35;;;;;;;22.00;35.27;102610.88;4940720;28;20632;-79
2021/04/04 10:55:43;;;;;;;22.77;13.88;;;;;;;21.95;35.24;102611.91;4962199;28;20015;-77
2021/04/04 10:58:09;;;;;;;18.13;12.20;;;;;;;22.36;34.78;102627.63;4968963;28;20019;-79
2021/04/04 11:00:35;;;;;;;16.83;11.23;;;;;;;22.17;34.84;102638.53;4958775;28;20469;-77
2021/04/04 11:03:03;;;;;;;21.92;11.88;;;;;;;22.20;34.29;102637.00;4958303;28;20038;-77
2021/04/04 11:05:29;;;;;;;16.83;11.10;;;;;;;22.39;34.22;102626.94;4958421;28;20035;-78
2021/04/04 11:07:56;;;;;;;18.13;11.18;;;;;;;22.57;34.08;102618.31;4959729;28;20109;-76
2021/04/04 11:10:22;;;;;;;17.05;10.82;;;;;;;22.87;33.64;102632.84;4940057;28;20023;-77
2021/04/04 11:12:48;;;;;;;16.90;9.45;;;;;;;22.62;33.67;102624.47;4945724;28;20023;-78
2021/04/04 11:15:16;;;;;;;17.63;8.80;;;;;;;22.28;33.68;102622.97;4960336;28;20397;-78
2021/04/04 11:17:44;;;;;;;18.85;8.50;;;;;;;22.92;32.97;102607.50;4973219;28;20038;-77
2021/04/04 11:20:15;;;;;;;17.85;8.68;;;;;;;23.02;32.77;102620.94;4959841;28;20245;-78
2021/04/04 11:22:41;;;;;;;21.33;10.52;;;;;;;23.01;33.08;102610.97;4968542;28;20081;-77
2021/04/04 11:25:09;;;;;;;14.73;7.78;;;;;;;22.52;33.06;102621.34;4964074;28;20054;-79
2021/04/04 11:27:40;;;;;;;14.18;8.55;;;;;;;22.42;33.25;102609.50;4960364;28;20022;-77
2021/04/04 11:30:08;;;;;;;11.65;7.80;;;;;;;22.37;33.59;102620.91;4960078;28;20452;-77
2021/04/04 11:32:33;;;;;;;13.82;8.02;;;;;;;22.95;32.83;102609.59;4959680;28;20031;-79